Flight Track Log - Related Links

Times and Time Zones

All times are in EDT time to prevent confusion due to time zone crossing. See the JZA8278 flight status page for this flight to view local times or setup timezone preferences in your user account.

Time Position Orientation Groundspeed Altitude Reporting Facility
EDT Latitude Longitude Course Direction KTS MPH feet Rate Location/Type
Sat 11:20:45 AM 49.1667 -123.1333 334° Northwest 120 138 1,600  Level Vancouver Center
Sat 11:21:45 AM 49.1500 -123.0833 117° Southeast 140 161 3,100 1,400 Climbing Vancouver Center
Sat 11:22:45 AM 49.1667 -123.0000 73° East 140 161 4,400 1,350 Climbing Vancouver Center
Sat 11:23:45 AM 49.1833 -122.9500 63° Northeast 140 161 5,800 1,400 Climbing Vancouver Center
Sat 11:24:00 AM 49.2594 -123.2856 331° Northwest  Level FlightAware Approximate
Sat 11:24:45 AM 49.2167 -122.9833 327° Northwest 150 173 7,200  Level Vancouver Center
Sat 11:25:00 AM 49.3214 -123.3381 327° Northwest  Level FlightAware Approximate
Sat 11:25:45 AM 49.2500 -123.0000 342° North 160 184 8,200  Level Vancouver Center
Sat 11:26:00 AM 49.3842 -123.3881 334° Northwest  Level FlightAware Approximate
Sat 11:26:45 AM 49.3000 -123.0333 337° Northwest 190 219 9,200  Level Vancouver Center
Sat 11:27:45 AM 49.3500 -123.0833 327° Northwest 190 219 10,400 1,200 Climbing Vancouver Center
Sat 11:28:45 AM 49.3833 -123.1333 316° Northwest 200 230 11,600 1,150 Climbing Vancouver Center
Sat 11:29:45 AM 49.4333 -123.1833 327° Northwest 200 230 12,700 1,050 Climbing Vancouver Center
Sat 11:30:45 AM 49.4667 -123.2333 316° Northwest 200 230 13,700 900 Climbing Vancouver Center
Sat 11:31:45 AM 49.5167 -123.3167 313° West 210 242 14,500 850 Climbing Vancouver Center
Sat 11:32:45 AM 49.5667 -123.3667 327° Northwest 210 242 15,400 850 Climbing Vancouver Center
Sat 11:33:45 AM 49.6000 -123.4167 316° Northwest 210 242 16,200 750 Climbing Vancouver Center
Sat 11:34:45 AM 49.6500 -123.4833 319° Northwest 210 242 16,900 800 Climbing Vancouver Center
Sat 11:35:45 AM 49.7000 -123.5333 327° Northwest 220 253 17,800 700 Climbing Vancouver Center
Sat 11:36:45 AM 49.7500 -123.6000 319° Northwest 220 253 18,300 650 Climbing Vancouver Center
Sat 11:37:45 AM 49.7833 -123.6667 308° West 210 242 19,100 800 Climbing Vancouver Center
Sat 11:38:45 AM 49.8333 -123.7167 327° Northwest 210 242 19,900 750 Climbing Vancouver Center
Sat 11:39:45 AM 49.8833 -123.7667 327° Northwest 210 242 20,600 650 Climbing Vancouver Center
Sat 11:40:45 AM 49.9167 -123.8500 302° West 220 253 21,200 600 Climbing Vancouver Center
Sat 11:41:45 AM 49.9667 -123.9000 327° Northwest 210 242 21,800 400 Climbing Vancouver Center
Sat 11:42:45 AM 50.0167 -123.9500 327° Northwest 220 253 22,000 100 Climbing Vancouver Center
Sat 11:43:45 AM 50.0667 -124.0333 313° West 230 265 22,000  Level Vancouver Center
Sat 11:44:45 AM 50.1167 -124.1167 313° West 250 288 22,000  Level Vancouver Center
Sat 11:45:45 AM 50.1667 -124.1667 327° Northwest 250 288 22,000  Level Vancouver Center
Sat 11:46:45 AM 50.2167 -124.2500 313° West 250 288 22,000  Level Vancouver Center
Sat 11:47:45 AM 50.2833 -124.3167 327° Northwest 250 288 22,000  Level Vancouver Center
Sat 11:48:45 AM 50.3333 -124.4000 313° West 260 299 22,000  Level Vancouver Center
Sat 11:49:45 AM 50.3833 -124.4500 327° Northwest 250 288 22,000  Level Vancouver Center
Sat 11:50:45 AM 50.4333 -124.5333 313° West 250 288 22,000  Level Vancouver Center
Sat 11:51:45 AM 50.4833 -124.6167 313° West 250 288 22,000  Level Vancouver Center
Sat 11:52:45 AM 50.5500 -124.7000 322° Northwest 260 299 22,000  Level Vancouver Center
Sat 11:53:45 AM 50.6000 -124.7500 328° Northwest 250 288 22,000  Level Vancouver Center
Sat 11:54:45 AM 50.6500 -124.8333 313° West 250 288 22,000  Level Vancouver Center
Sat 11:55:45 AM 50.7000 -124.9000 320° Northwest 260 299 22,000  Level Vancouver Center
Sat 11:56:45 AM 50.7667 -124.9833 322° Northwest 250 288 22,000  Level Vancouver Center
Sat 11:57:45 AM 50.8167 -125.0333 328° Northwest 260 299 22,000  Level Vancouver Center
Sat 11:58:45 AM 50.8667 -125.1167 314° West 260 299 22,000  Level Vancouver Center
Sat 11:59:45 AM 50.9167 -125.2000 314° West 250 288 22,000  Level Vancouver Center
Sat 12:00:45 PM 50.9667 -125.2833 314° West 250 288 22,000  Level Vancouver Center
Sat 12:01:45 PM 51.0333 -125.3333 335° Northwest 250 288 22,000  Level Vancouver Center
Sat 12:02:45 PM 51.0833 -125.4167 314° West 250 288 22,000  Level Vancouver Center
Sat 12:03:45 PM 51.1333 -125.5000 314° West 250 288 22,000  Level Vancouver Center
Sat 12:04:45 PM 51.1833 -125.5833 314° West 250 288 22,000  Level Vancouver Center
Sat 12:05:45 PM 51.2333 -125.6333 328° Northwest 250 288 22,000  Level Vancouver Center
Sat 12:06:45 PM 51.3000 -125.7167 322° Northwest 250 288 22,000  Level Vancouver Center
Sat 12:07:45 PM 51.3500 -125.8000 314° West 250 288 22,000  Level Vancouver Center
Sat 12:08:45 PM 51.3833 -125.8833 303° West 260 299 22,000  Level Vancouver Center
Sat 12:09:45 PM 51.4333 -125.9333 328° Northwest 250 288 22,000  Level Vancouver Center
Sat 12:10:45 PM 51.5000 -126.0167 322° Northwest 250 288 22,000  Level Vancouver Center
Sat 12:11:45 PM 51.5500 -126.1000 314° West 250 288 22,000  Level Vancouver Center
Sat 12:12:45 PM 51.6000 -126.1833 314° West 250 288 22,000  Level Vancouver Center
Sat 12:13:45 PM 51.6500 -126.2500 320° Northwest 250 288 22,000  Level Vancouver Center
Sat 12:14:45 PM 51.7000 -126.3333 314° West 250 288 22,000  Level Vancouver Center
Sat 12:15:45 PM 51.7500 -126.4167 314° West 250 288 22,000  Level Vancouver Center
Sat 12:16:45 PM 51.8167 -126.5000 322° Northwest 250 288 22,000  Level Vancouver Center
Sat 12:17:45 PM 51.8667 -126.5500 328° Northwest 250 288 22,000  Level Vancouver Center
Sat 12:18:45 PM 51.9167 -126.6333 314° West 250 288 22,000  Level Vancouver Center
Sat 12:19:45 PM 51.9500 -126.7167 303° West 250 288 22,000  Level Vancouver Center
Sat 12:20:45 PM 52.0000 -126.7833 321° Northwest 250 288 22,000  Level Vancouver Center
Sat 12:21:45 PM 52.0500 -126.8667 314° West 250 288 22,000  Level Vancouver Center
Sat 12:22:45 PM 52.1000 -126.9500 314° West 250 288 22,000  Level Vancouver Center
Sat 12:23:45 PM 52.1667 -127.0333 323° Northwest 250 288 22,000  Level Vancouver Center
Sat 12:24:45 PM 52.2167 -127.1000 321° Northwest 250 288 22,000  Level Vancouver Center
Sat 12:25:45 PM 52.2667 -127.1833 314° West 250 288 22,000  Level Vancouver Center
Sat 12:26:45 PM 52.3167 -127.2667 314° West 250 288 22,000  Level Vancouver Center
Sat 12:27:45 PM 52.3833 -127.3333 329° Northwest 250 288 22,000  Level Vancouver Center
Sat 12:28:45 PM 52.4167 -127.4167 303° West 250 288 22,000  Level Vancouver Center
Sat 12:29:45 PM 52.4667 -127.5000 315° West 250 288 22,000  Level Vancouver Center
Sat 12:30:45 PM 52.5167 -127.5500 329° Northwest 250 288 22,000  Level Vancouver Center
Sat 12:31:45 PM 52.5667 -127.6500 309° West 250 288 22,000  Level Vancouver Center
Sat 12:32:45 PM 52.6167 -127.7333 315° West 250 288 22,000  Level Vancouver Center
Sat 12:33:45 PM 52.6667 -127.7833 329° Northwest 250 288 22,000  Level Vancouver Center
Sat 12:34:45 PM 52.7167 -127.8833 310° West 250 288 22,000  Level Vancouver Center
Sat 12:35:45 PM 52.7500 -127.9667 303° West 250 288 22,000  Level Vancouver Center
Sat 12:36:45 PM 52.8167 -128.0500 323° Northwest 250 288 22,000  Level Vancouver Center
Sat 12:37:45 PM 52.8667 -128.1167 321° Northwest 250 288 22,000  Level Vancouver Center
Sat 12:38:45 PM 52.9167 -128.2000 315° West 250 288 22,000  Level Vancouver Center
Sat 12:39:45 PM 52.9667 -128.2833 315° West 250 288 22,000  Level Vancouver Center
Sat 12:40:45 PM 53.0167 -128.3500 321° Northwest 260 299 22,000  Level Vancouver Center
Sat 12:41:45 PM 53.0500 -128.4333 304° West 250 288 22,000  Level Vancouver Center
Sat 12:42:45 PM 53.1167 -128.5333 318° Northwest 250 288 22,000  Level Vancouver Center
Sat 12:43:45 PM 53.1667 -128.5833 329° Northwest 250 288 22,000  Level Vancouver Center
Sat 12:44:45 PM 53.2167 -128.6833 310° West 240 276 22,000 -200 Level Vancouver Center
Sat 12:45:45 PM 53.2667 -128.7667 315° West 250 288 21,600 -650 Descending Vancouver Center
Sat 12:46:45 PM 53.3167 -128.8500 315° West 270 311 20,700 -900 Descending Vancouver Center
Sat 12:47:45 PM 53.3667 -128.9500 310° West 280 322 19,800 -950 Descending Vancouver Center
Sat 12:48:45 PM 53.4333 -129.0333 323° Northwest 280 322 18,800 -950 Descending Vancouver Center
Sat 12:49:45 PM 53.4833 -129.1333 310° West 290 334 17,900 -800 Descending Vancouver Center
Sat 12:50:45 PM 53.5500 -129.2167 323° Northwest 290 334 17,200 -800 Descending Vancouver Center
Sat 12:51:45 PM 53.5833 -129.3167 299° West 290 334 16,300 -900 Descending Vancouver Center
Sat 12:52:45 PM 53.6500 -129.4000 323° Northwest 290 334 15,400 -950 Descending Vancouver Center
Sat 12:53:45 PM 53.7167 -129.5167 314° West 290 334 14,400 -950 Descending Vancouver Center
Sat 12:54:45 PM 53.7500 -129.6167 299° West 290 334 13,500 -950 Descending Vancouver Center
Sat 12:55:45 PM 53.8167 -129.7167 318° Northwest 290 334 12,500 -950 Descending Vancouver Center
Sat 12:56:45 PM 53.8667 -129.8000 316° Northwest 280 322 11,600 -900 Descending Vancouver Center
Sat 12:57:45 PM 53.9333 -129.9000 319° Northwest 280 322 10,700 -900 Descending Vancouver Center
Sat 12:58:45 PM 53.9667 -129.9833 304° West 270 311 9,800 -900 Descending Vancouver Center
Sat 12:59:45 PM 54.0333 -130.0833 324° Northwest 270 311 8,900 -900 Descending Vancouver Center
Sat 01:00:00 PM 54.0314 -130.0641 324° Northwest  Level FlightAware Approximate
Sat 01:00:45 PM 54.0833 -130.1667 316° Northwest 270 311 8,000  Level Vancouver Center
Sat 01:01:45 PM 54.1500 -130.2667 319° Northwest 270 311 7,200 -850 Descending Vancouver Center
Sat 01:02:45 PM 54.1833 -130.3333 311° West 260 299 6,300 -850 Descending Vancouver Center
Sat 01:03:45 PM 54.2333 -130.4333 311° West 250 288 5,500 -700 Descending Vancouver Center
Sat 01:05:00 PM 54.2833 -130.4333 344° North  Level FlightAware Approximate
Sat 01:06:45 PM 54.3833 -130.5667 344° North 170 196 3,500  Level Vancouver Center
Sat 01:07:45 PM 54.3833 -130.6500 270° West 170 196 2,900 -500 Descending Vancouver Center
Sat 01:08:45 PM 54.4167 -130.6500 360° North 150 173 2,500 -200 Descending Vancouver Center
Sat 01:09:45 PM 54.4000 -130.6000 120° Southeast 150 173 2,500 -250 Level Vancouver Center
Sat 01:10:45 PM 54.3667 -130.5667 150° Southeast 150 173 2,000 -650 Descending Vancouver Center
Sat 01:11:45 PM 54.3333 -130.5333 150° Southeast 130 150 1,200 -700 Descending Vancouver Center
Sat 01:12:00 PM 54.2861 -130.4447 344° North  Level Estimated
Sat 01:12:45 PM 54.3000 -130.5000 150° Southeast 120 138 600  Level Vancouver Center
Sat 01:19:13 PM 49.1333 -123.5000 137° Southeast 90 104 700 15 Climbing Vancouver Center

Login

Don't have an account? Register now (free) for customized features, flight alerts, and more!